sensor_id;sensor_type;location;lat;lon;timestamp;P1;durP1;ratioP1;P2;durP2;ratioP2
13279;SDS011;6708;49.814;8.652;2022-11-11T00:02:38;4.70;;;3.80;;
13279;SDS011;6708;49.814;8.652;2022-11-11T00:05:25;3.93;;;3.63;;
13279;SDS011;6708;49.814;8.652;2022-11-11T00:08:13;3.80;;;3.50;;
13279;SDS011;6708;49.814;8.652;2022-11-11T00:11:01;6.03;;;3.40;;
13279;SDS011;6708;49.814;8.652;2022-11-11T00:13:48;4.53;;;4.07;;
13279;SDS011;6708;49.814;8.652;2022-11-11T00:16:35;3.73;;;3.53;;
13279;SDS011;6708;49.814;8.652;2022-11-11T00:19:37;5.80;;;4.37;;
13279;SDS011;6708;49.814;8.652;2022-11-11T00:22:37;4.17;;;3.83;;
13279;SDS011;6708;49.814;8.652;2022-11-11T00:25:36;4.03;;;3.40;;
13279;SDS011;6708;49.814;8.652;2022-11-11T00:28:23;4.30;;;3.90;;
13279;SDS011;6708;49.814;8.652;2022-11-11T00:31:11;6.33;;;3.83;;
13279;SDS011;6708;49.814;8.652;2022-11-11T00:33:58;5.90;;;3.90;;
13279;SDS011;6708;49.814;8.652;2022-11-11T00:36:48;3.87;;;3.67;;
13279;SDS011;6708;49.814;8.652;2022-11-11T00:39:32;3.70;;;3.43;;
13279;SDS011;6708;49.814;8.652;2022-11-11T00:42:19;4.07;;;3.70;;
13279;SDS011;6708;49.814;8.652;2022-11-11T00:45:07;3.30;;;3.10;;
13279;SDS011;6708;49.814;8.652;2022-11-11T00:47:55;3.77;;;3.47;;
13279;SDS011;6708;49.814;8.652;2022-11-11T00:50:54;3.27;;;3.00;;
13279;SDS011;6708;49.814;8.652;2022-11-11T00:53:47;3.67;;;3.47;;
13279;SDS011;6708;49.814;8.652;2022-11-11T00:56:34;4.27;;;3.23;;
13279;SDS011;6708;49.814;8.652;2022-11-11T00:59:21;4.50;;;3.37;;
13279;SDS011;6708;49.814;8.652;2022-11-11T01:02:08;5.60;;;4.00;;
13279;SDS011;6708;49.814;8.652;2022-11-11T01:04:55;4.50;;;4.20;;
13279;SDS011;6708;49.814;8.652;2022-11-11T01:07:43;4.87;;;4.47;;
13279;SDS011;6708;49.814;8.652;2022-11-11T01:10:33;7.00;;;4.90;;
13279;SDS011;6708;49.814;8.652;2022-11-11T01:13:26;5.67;;;4.03;;
13279;SDS011;6708;49.814;8.652;2022-11-11T01:16:15;4.63;;;4.00;;
13279;SDS011;6708;49.814;8.652;2022-11-11T01:19:03;5.37;;;4.07;;
13279;SDS011;6708;49.814;8.652;2022-11-11T01:21:50;5.20;;;4.27;;
13279;SDS011;6708;49.814;8.652;2022-11-11T01:24:37;4.57;;;4.17;;
13279;SDS011;6708;49.814;8.652;2022-11-11T01:27:27;6.63;;;4.47;;
13279;SDS011;6708;49.814;8.652;2022-11-11T01:30:14;10.47;;;4.33;;
13279;SDS011;6708;49.814;8.652;2022-11-11T01:33:02;4.07;;;3.77;;
13279;SDS011;6708;49.814;8.652;2022-11-11T01:35:49;3.83;;;3.63;;
13279;SDS011;6708;49.814;8.652;2022-11-11T01:38:36;4.93;;;4.53;;
13279;SDS011;6708;49.814;8.652;2022-11-11T01:41:26;5.43;;;4.67;;
13279;SDS011;6708;49.814;8.652;2022-11-11T01:47:29;3.87;;;3.67;;
13279;SDS011;6708;49.814;8.652;2022-11-11T01:50:38;3.90;;;3.60;;
13279;SDS011;6708;49.814;8.652;2022-11-11T01:53:22;4.10;;;3.80;;
13279;SDS011;6708;49.814;8.652;2022-11-11T01:56:09;4.30;;;3.90;;
13279;SDS011;6708;49.814;8.652;2022-11-11T01:58:57;4.30;;;3.90;;
13279;SDS011;6708;49.814;8.652;2022-11-11T02:01:51;4.10;;;3.80;;
13279;SDS011;6708;49.814;8.652;2022-11-11T02:04:38;5.67;;;5.00;;
13279;SDS011;6708;49.814;8.652;2022-11-11T02:07:37;4.83;;;3.57;;
13279;SDS011;6708;49.814;8.652;2022-11-11T02:10:26;4.20;;;3.80;;
13279;SDS011;6708;49.814;8.652;2022-11-11T02:13:16;4.47;;;4.07;;
13279;SDS011;6708;49.814;8.652;2022-11-11T02:16:15;4.83;;;4.10;;
13279;SDS011;6708;49.814;8.652;2022-11-11T02:19:05;3.97;;;3.77;;
13279;SDS011;6708;49.814;8.652;2022-11-11T02:21:54;4.23;;;3.93;;
13279;SDS011;6708;49.814;8.652;2022-11-11T02:24:47;6.40;;;4.00;;
13279;SDS011;6708;49.814;8.652;2022-11-11T02:27:36;4.40;;;4.00;;
13279;SDS011;6708;49.814;8.652;2022-11-11T02:30:24;3.97;;;3.30;;
13279;SDS011;6708;49.814;8.652;2022-11-11T02:33:11;4.67;;;4.27;;
13279;SDS011;6708;49.814;8.652;2022-11-11T02:35:58;8.80;;;3.70;;
13279;SDS011;6708;49.814;8.652;2022-11-11T02:38:46;4.03;;;3.63;;
13279;SDS011;6708;49.814;8.652;2022-11-11T02:41:36;3.70;;;3.13;;
13279;SDS011;6708;49.814;8.652;2022-11-11T02:44:35;4.10;;;3.80;;
13279;SDS011;6708;49.814;8.652;2022-11-11T02:47:23;3.37;;;3.07;;
13279;SDS011;6708;49.814;8.652;2022-11-11T02:50:11;3.93;;;3.53;;
13279;SDS011;6708;49.814;8.652;2022-11-11T02:52:58;4.03;;;3.53;;
13279;SDS011;6708;49.814;8.652;2022-11-11T02:55:45;3.63;;;3.43;;
13279;SDS011;6708;49.814;8.652;2022-11-11T02:58:35;5.33;;;4.20;;
13279;SDS011;6708;49.814;8.652;2022-11-11T03:01:22;4.93;;;4.53;;
13279;SDS011;6708;49.814;8.652;2022-11-11T03:04:09;4.40;;;4.00;;
13279;SDS011;6708;49.814;8.652;2022-11-11T03:06:56;4.33;;;3.93;;
13279;SDS011;6708;49.814;8.652;2022-11-11T03:09:43;4.57;;;4.27;;
13279;SDS011;6708;49.814;8.652;2022-11-11T03:12:30;4.17;;;3.67;;
13279;SDS011;6708;49.814;8.652;2022-11-11T03:15:20;4.30;;;3.90;;
13279;SDS011;6708;49.814;8.652;2022-11-11T03:18:07;4.83;;;4.37;;
13279;SDS011;6708;49.814;8.652;2022-11-11T03:20:52;3.87;;;3.67;;
13279;SDS011;6708;49.814;8.652;2022-11-11T03:23:51;5.07;;;4.40;;
13279;SDS011;6708;49.814;8.652;2022-11-11T03:26:38;4.17;;;3.87;;
13279;SDS011;6708;49.814;8.652;2022-11-11T03:29:25;4.03;;;3.53;;
13279;SDS011;6708;49.814;8.652;2022-11-11T03:32:15;3.67;;;3.37;;
13279;SDS011;6708;49.814;8.652;2022-11-11T03:35:02;4.40;;;4.00;;
13279;SDS011;6708;49.814;8.652;2022-11-11T03:37:49;4.23;;;3.93;;
13279;SDS011;6708;49.814;8.652;2022-11-11T03:40:49;4.13;;;3.83;;
13279;SDS011;6708;49.814;8.652;2022-11-11T03:43:38;3.30;;;3.10;;
13279;SDS011;6708;49.814;8.652;2022-11-11T03:46:24;3.63;;;3.33;;
13279;SDS011;6708;49.814;8.652;2022-11-11T03:49:14;5.10;;;3.70;;
13279;SDS011;6708;49.814;8.652;2022-11-11T03:52:01;4.17;;;3.87;;
13279;SDS011;6708;49.814;8.652;2022-11-11T03:54:48;3.77;;;3.57;;
13279;SDS011;6708;49.814;8.652;2022-11-11T03:57:38;4.73;;;4.13;;
13279;SDS011;6708;49.814;8.652;2022-11-11T04:00:28;5.27;;;4.47;;
13279;SDS011;6708;49.814;8.652;2022-11-11T04:03:15;4.90;;;4.47;;
13279;SDS011;6708;49.814;8.652;2022-11-11T04:06:19;7.00;;;4.60;;
13279;SDS011;6708;49.814;8.652;2022-11-11T04:09:18;4.73;;;4.33;;
13279;SDS011;6708;49.814;8.652;2022-11-11T04:12:17;4.30;;;4.00;;
13279;SDS011;6708;49.814;8.652;2022-11-11T04:15:05;4.40;;;4.00;;
13279;SDS011;6708;49.814;8.652;2022-11-11T04:18:05;3.63;;;3.33;;
13279;SDS011;6708;49.814;8.652;2022-11-11T04:20:52;3.40;;;3.20;;
13279;SDS011;6708;49.814;8.652;2022-11-11T04:24:02;3.17;;;3.00;;
13279;SDS011;6708;49.814;8.652;2022-11-11T04:27:11;3.23;;;2.97;;
13279;SDS011;6708;49.814;8.652;2022-11-11T04:29:56;3.23;;;3.03;;
13279;SDS011;6708;49.814;8.652;2022-11-11T04:32:43;3.80;;;3.07;;
13279;SDS011;6708;49.814;8.652;2022-11-11T04:35:31;3.27;;;3.07;;
13279;SDS011;6708;49.814;8.652;2022-11-11T04:38:18;2.63;;;2.53;;
13279;SDS011;6708;49.814;8.652;2022-11-11T04:41:20;8.40;;;3.93;;
13279;SDS011;6708;49.814;8.652;2022-11-11T04:44:06;4.47;;;3.30;;
13279;SDS011;6708;49.814;8.652;2022-11-11T04:47:06;4.03;;;3.47;;
13279;SDS011;6708;49.814;8.652;2022-11-11T04:49:53;5.30;;;3.77;;
13279;SDS011;6708;49.814;8.652;2022-11-11T04:52:41;3.50;;;3.30;;
13279;SDS011;6708;49.814;8.652;2022-11-11T04:55:28;4.80;;;3.57;;
13279;SDS011;6708;49.814;8.652;2022-11-11T04:58:31;4.07;;;3.67;;
13279;SDS011;6708;49.814;8.652;2022-11-11T05:01:19;6.30;;;4.30;;
13279;SDS011;6708;49.814;8.652;2022-11-11T05:04:18;4.33;;;3.43;;
13279;SDS011;6708;49.814;8.652;2022-11-11T05:07:05;6.07;;;4.40;;
13279;SDS011;6708;49.814;8.652;2022-11-11T05:10:05;5.13;;;4.23;;
13279;SDS011;6708;49.814;8.652;2022-11-11T05:12:53;4.83;;;4.17;;
13279;SDS011;6708;49.814;8.652;2022-11-11T05:16:03;4.27;;;3.87;;
13279;SDS011;6708;49.814;8.652;2022-11-11T05:19:03;8.07;;;4.07;;
13279;SDS011;6708;49.814;8.652;2022-11-11T05:22:04;4.83;;;4.33;;
13279;SDS011;6708;49.814;8.652;2022-11-11T05:24:53;6.60;;;4.20;;
13279;SDS011;6708;49.814;8.652;2022-11-11T05:27:53;7.13;;;4.53;;
13279;SDS011;6708;49.814;8.652;2022-11-11T05:30:41;5.73;;;4.50;;
13279;SDS011;6708;49.814;8.652;2022-11-11T05:33:30;6.90;;;4.40;;
13279;SDS011;6708;49.814;8.652;2022-11-11T05:36:17;5.47;;;3.67;;
13279;SDS011;6708;49.814;8.652;2022-11-11T05:39:04;5.03;;;4.57;;
13279;SDS011;6708;49.814;8.652;2022-11-11T05:41:52;11.13;;;5.33;;
13279;SDS011;6708;49.814;8.652;2022-11-11T05:44:39;6.10;;;5.43;;
13279;SDS011;6708;49.814;8.652;2022-11-11T05:47:26;5.13;;;4.73;;
13279;SDS011;6708;49.814;8.652;2022-11-11T05:50:16;6.03;;;5.43;;
13279;SDS011;6708;49.814;8.652;2022-11-11T05:53:03;5.37;;;4.87;;
13279;SDS011;6708;49.814;8.652;2022-11-11T05:55:50;7.67;;;5.50;;
13279;SDS011;6708;49.814;8.652;2022-11-11T05:58:37;7.33;;;4.97;;
13279;SDS011;6708;49.814;8.652;2022-11-11T06:01:25;5.33;;;4.70;;
13279;SDS011;6708;49.814;8.652;2022-11-11T06:04:12;11.23;;;5.67;;
13279;SDS011;6708;49.814;8.652;2022-11-11T06:07:02;7.60;;;5.53;;
13279;SDS011;6708;49.814;8.652;2022-11-11T06:09:49;6.10;;;5.50;;
13279;SDS011;6708;49.814;8.652;2022-11-11T06:12:56;5.47;;;4.97;;
13279;SDS011;6708;49.814;8.652;2022-11-11T06:15:52;4.97;;;4.67;;
13279;SDS011;6708;49.814;8.652;2022-11-11T06:18:41;6.03;;;5.43;;
13279;SDS011;6708;49.814;8.652;2022-11-11T06:21:29;6.67;;;6.07;;
13279;SDS011;6708;49.814;8.652;2022-11-11T06:24:38;7.07;;;6.57;;
13279;SDS011;6708;49.814;8.652;2022-11-11T06:27:26;7.47;;;6.40;;
13279;SDS011;6708;49.814;8.652;2022-11-11T06:30:13;6.87;;;6.33;;
13279;SDS011;6708;49.814;8.652;2022-11-11T06:33:00;7.20;;;6.57;;
13279;SDS011;6708;49.814;8.652;2022-11-11T06:35:47;7.67;;;6.97;;
13279;SDS011;6708;49.814;8.652;2022-11-11T06:38:34;18.97;;;7.77;;
13279;SDS011;6708;49.814;8.652;2022-11-11T06:41:24;24.80;;;7.93;;
13279;SDS011;6708;49.814;8.652;2022-11-11T06:44:11;10.97;;;8.83;;
13279;SDS011;6708;49.814;8.652;2022-11-11T06:46:58;14.77;;;7.77;;
13279;SDS011;6708;49.814;8.652;2022-11-11T06:49:45;11.93;;;7.77;;
13279;SDS011;6708;49.814;8.652;2022-11-11T06:52:32;12.67;;;7.77;;
13279;SDS011;6708;49.814;8.652;2022-11-11T06:55:20;7.77;;;7.07;;
13279;SDS011;6708;49.814;8.652;2022-11-11T06:58:10;8.47;;;6.90;;
13279;SDS011;6708;49.814;8.652;2022-11-11T07:01:02;6.77;;;6.20;;
13279;SDS011;6708;49.814;8.652;2022-11-11T07:03:49;11.87;;;7.30;;
13279;SDS011;6708;49.814;8.652;2022-11-11T07:06:36;15.80;;;7.43;;
13279;SDS011;6708;49.814;8.652;2022-11-11T07:09:23;6.47;;;5.97;;
13279;SDS011;6708;49.814;8.652;2022-11-11T07:12:11;7.50;;;6.90;;
13279;SDS011;6708;49.814;8.652;2022-11-11T07:15:01;6.90;;;6.40;;
13279;SDS011;6708;49.814;8.652;2022-11-11T07:17:48;17.73;;;6.13;;
13279;SDS011;6708;49.814;8.652;2022-11-11T07:20:35;28.97;;;8.53;;
13279;SDS011;6708;49.814;8.652;2022-11-11T07:23:22;20.27;;;7.90;;
13279;SDS011;6708;49.814;8.652;2022-11-11T07:26:09;16.30;;;7.67;;
13279;SDS011;6708;49.814;8.652;2022-11-11T07:28:56;15.53;;;7.93;;
13279;SDS011;6708;49.814;8.652;2022-11-11T07:31:46;19.23;;;7.70;;
13279;SDS011;6708;49.814;8.652;2022-11-11T07:34:34;19.70;;;8.30;;
13279;SDS011;6708;49.814;8.652;2022-11-11T07:37:21;12.00;;;7.57;;
13279;SDS011;6708;49.814;8.652;2022-11-11T07:40:09;7.90;;;7.20;;
13279;SDS011;6708;49.814;8.652;2022-11-11T07:42:57;7.80;;;7.10;;
13279;SDS011;6708;49.814;8.652;2022-11-11T07:45:44;10.90;;;7.27;;
13279;SDS011;6708;49.814;8.652;2022-11-11T07:48:33;7.90;;;6.90;;
13279;SDS011;6708;49.814;8.652;2022-11-11T07:51:21;8.53;;;7.27;;
13279;SDS011;6708;49.814;8.652;2022-11-11T07:54:08;12.17;;;7.20;;
13279;SDS011;6708;49.814;8.652;2022-11-11T07:56:55;6.93;;;6.33;;
13279;SDS011;6708;49.814;8.652;2022-11-11T07:59:42;7.80;;;7.03;;
13279;SDS011;6708;49.814;8.652;2022-11-11T08:02:29;25.10;;;8.00;;
13279;SDS011;6708;49.814;8.652;2022-11-11T08:05:18;38.40;;;7.30;;
13279;SDS011;6708;49.814;8.652;2022-11-11T08:08:06;26.90;;;6.17;;
13279;SDS011;6708;49.814;8.652;2022-11-11T08:10:54;19.30;;;6.13;;
13279;SDS011;6708;49.814;8.652;2022-11-11T08:13:41;18.03;;;6.47;;
13279;SDS011;6708;49.814;8.652;2022-11-11T08:16:26;12.77;;;6.30;;
13279;SDS011;6708;49.814;8.652;2022-11-11T08:19:13;17.77;;;7.90;;
13279;SDS011;6708;49.814;8.652;2022-11-11T08:22:03;5.60;;;5.20;;
13279;SDS011;6708;49.814;8.652;2022-11-11T08:24:51;8.10;;;6.90;;
13279;SDS011;6708;49.814;8.652;2022-11-11T08:27:38;8.03;;;6.70;;
13279;SDS011;6708;49.814;8.652;2022-11-11T08:30:25;7.03;;;6.33;;
13279;SDS011;6708;49.814;8.652;2022-11-11T08:33:12;7.50;;;6.80;;
13279;SDS011;6708;49.814;8.652;2022-11-11T08:35:59;11.40;;;7.20;;
13279;SDS011;6708;49.814;8.652;2022-11-11T08:38:48;7.30;;;6.60;;
13279;SDS011;6708;49.814;8.652;2022-11-11T08:41:36;11.87;;;8.33;;
13279;SDS011;6708;49.814;8.652;2022-11-11T08:44:22;11.53;;;7.13;;
13279;SDS011;6708;49.814;8.652;2022-11-11T08:47:09;12.00;;;8.00;;
13279;SDS011;6708;49.814;8.652;2022-11-11T08:49:57;9.83;;;7.97;;
13279;SDS011;6708;49.814;8.652;2022-11-11T08:52:44;12.00;;;8.03;;
13279;SDS011;6708;49.814;8.652;2022-11-11T08:55:34;16.73;;;8.10;;
13279;SDS011;6708;49.814;8.652;2022-11-11T08:58:21;17.50;;;8.13;;
13279;SDS011;6708;49.814;8.652;2022-11-11T09:01:11;10.17;;;7.10;;
13279;SDS011;6708;49.814;8.652;2022-11-11T09:03:59;7.93;;;6.60;;
13279;SDS011;6708;49.814;8.652;2022-11-11T09:06:46;7.10;;;6.37;;
13279;SDS011;6708;49.814;8.652;2022-11-11T09:09:33;7.87;;;6.80;;
13279;SDS011;6708;49.814;8.652;2022-11-11T09:12:23;17.03;;;8.10;;
13279;SDS011;6708;49.814;8.652;2022-11-11T09:15:10;10.23;;;8.03;;
13279;SDS011;6708;49.814;8.652;2022-11-11T09:17:57;14.83;;;8.13;;
13279;SDS011;6708;49.814;8.652;2022-11-11T09:20:44;10.57;;;8.20;;
13279;SDS011;6708;49.814;8.652;2022-11-11T09:23:31;14.73;;;8.30;;
13279;SDS011;6708;49.814;8.652;2022-11-11T09:26:18;16.73;;;8.97;;
13279;SDS011;6708;49.814;8.652;2022-11-11T09:29:08;21.03;;;9.33;;
13279;SDS011;6708;49.814;8.652;2022-11-11T09:31:55;14.73;;;9.00;;
13279;SDS011;6708;49.814;8.652;2022-11-11T09:34:42;21.50;;;9.50;;
13279;SDS011;6708;49.814;8.652;2022-11-11T09:37:29;12.83;;;9.20;;
13279;SDS011;6708;49.814;8.652;2022-11-11T09:40:16;13.23;;;9.50;;
13279;SDS011;6708;49.814;8.652;2022-11-11T09:43:08;14.00;;;10.30;;
13279;SDS011;6708;49.814;8.652;2022-11-11T09:46:04;10.80;;;9.13;;
13279;SDS011;6708;49.814;8.652;2022-11-11T09:52:30;13.73;;;10.33;;
13279;SDS011;6708;49.814;8.652;2022-11-11T09:55:19;12.33;;;10.33;;
13279;SDS011;6708;49.814;8.652;2022-11-11T09:58:10;13.40;;;9.63;;
13279;SDS011;6708;49.814;8.652;2022-11-11T10:01:05;11.47;;;9.87;;
13279;SDS011;6708;49.814;8.652;2022-11-11T10:03:56;13.37;;;10.20;;
13279;SDS011;6708;49.814;8.652;2022-11-11T10:06:44;13.40;;;9.33;;
13279;SDS011;6708;49.814;8.652;2022-11-11T10:09:34;13.03;;;10.77;;
13279;SDS011;6708;49.814;8.652;2022-11-11T10:12:25;12.40;;;9.20;;
13279;SDS011;6708;49.814;8.652;2022-11-11T10:15:19;10.77;;;9.67;;
13279;SDS011;6708;49.814;8.652;2022-11-11T10:18:10;13.90;;;9.77;;
13279;SDS011;6708;49.814;8.652;2022-11-11T10:21:04;11.07;;;9.93;;
13279;SDS011;6708;49.814;8.652;2022-11-11T10:23:57;13.40;;;9.93;;
13279;SDS011;6708;49.814;8.652;2022-11-11T10:26:47;13.57;;;10.50;;
13279;SDS011;6708;49.814;8.652;2022-11-11T10:29:40;14.47;;;11.87;;
13279;SDS011;6708;49.814;8.652;2022-11-11T10:32:28;14.23;;;10.43;;
13279;SDS011;6708;49.814;8.652;2022-11-11T10:35:22;15.57;;;11.60;;
13279;SDS011;6708;49.814;8.652;2022-11-11T10:38:15;16.97;;;12.40;;
13279;SDS011;6708;49.814;8.652;2022-11-11T10:41:10;14.97;;;11.67;;
13279;SDS011;6708;49.814;8.652;2022-11-11T10:44:00;13.87;;;12.30;;
13279;SDS011;6708;49.814;8.652;2022-11-11T10:46:54;15.23;;;12.30;;
13279;SDS011;6708;49.814;8.652;2022-11-11T10:49:50;15.10;;;12.00;;
13279;SDS011;6708;49.814;8.652;2022-11-11T10:52:46;15.30;;;12.80;;
13279;SDS011;6708;49.814;8.652;2022-11-11T10:55:37;15.80;;;11.90;;
13279;SDS011;6708;49.814;8.652;2022-11-11T10:58:29;22.63;;;11.60;;
13279;SDS011;6708;49.814;8.652;2022-11-11T11:01:21;15.30;;;11.53;;
13279;SDS011;6708;49.814;8.652;2022-11-11T11:04:14;16.53;;;12.23;;
13279;SDS011;6708;49.814;8.652;2022-11-11T11:07:03;16.20;;;11.53;;
13279;SDS011;6708;49.814;8.652;2022-11-11T11:09:55;15.07;;;11.77;;
13279;SDS011;6708;49.814;8.652;2022-11-11T11:12:46;12.80;;;10.93;;
13279;SDS011;6708;49.814;8.652;2022-11-11T11:15:38;13.50;;;11.43;;
13279;SDS011;6708;49.814;8.652;2022-11-11T11:18:27;11.53;;;10.40;;
13279;SDS011;6708;49.814;8.652;2022-11-11T11:21:14;12.47;;;10.87;;
13279;SDS011;6708;49.814;8.652;2022-11-11T11:24:02;14.47;;;11.23;;
13279;SDS011;6708;49.814;8.652;2022-11-11T11:26:51;12.17;;;10.97;;
13279;SDS011;6708;49.814;8.652;2022-11-11T11:29:40;12.57;;;11.17;;
13279;SDS011;6708;49.814;8.652;2022-11-11T11:32:29;14.23;;;12.10;;
13279;SDS011;6708;49.814;8.652;2022-11-11T11:35:28;11.80;;;10.60;;
13279;SDS011;6708;49.814;8.652;2022-11-11T11:38:17;11.10;;;10.10;;
13279;SDS011;6708;49.814;8.652;2022-11-11T11:41:04;11.57;;;10.07;;
13279;SDS011;6708;49.814;8.652;2022-11-11T11:43:54;12.47;;;10.87;;
13279;SDS011;6708;49.814;8.652;2022-11-11T11:46:41;13.90;;;10.33;;
13279;SDS011;6708;49.814;8.652;2022-11-11T11:49:33;12.27;;;11.07;;
13279;SDS011;6708;49.814;8.652;2022-11-11T11:52:34;14.90;;;12.10;;
13279;SDS011;6708;49.814;8.652;2022-11-11T11:55:25;14.80;;;12.27;;
13279;SDS011;6708;49.814;8.652;2022-11-11T11:58:23;15.27;;;12.30;;
13279;SDS011;6708;49.814;8.652;2022-11-11T12:01:20;11.53;;;10.40;;
13279;SDS011;6708;49.814;8.652;2022-11-11T12:04:19;11.87;;;10.40;;
13279;SDS011;6708;49.814;8.652;2022-11-11T12:07:25;11.70;;;10.30;;
13279;SDS011;6708;49.814;8.652;2022-11-11T12:10:28;10.83;;;9.73;;
13279;SDS011;6708;49.814;8.652;2022-11-11T12:13:32;10.87;;;9.77;;
13279;SDS011;6708;49.814;8.652;2022-11-11T12:16:26;11.90;;;10.33;;
13279;SDS011;6708;49.814;8.652;2022-11-11T12:19:23;10.80;;;9.67;;
13279;SDS011;6708;49.814;8.652;2022-11-11T12:22:24;11.03;;;9.83;;
13279;SDS011;6708;49.814;8.652;2022-11-11T12:25:19;11.23;;;9.60;;
13279;SDS011;6708;49.814;8.652;2022-11-11T12:28:18;9.93;;;8.93;;
13279;SDS011;6708;49.814;8.652;2022-11-11T12:31:16;11.13;;;10.00;;
13279;SDS011;6708;49.814;8.652;2022-11-11T12:34:26;10.50;;;9.50;;
13279;SDS011;6708;49.814;8.652;2022-11-11T12:37:23;11.27;;;10.13;;
13279;SDS011;6708;49.814;8.652;2022-11-11T12:40:14;11.47;;;10.37;;
13279;SDS011;6708;49.814;8.652;2022-11-11T12:43:07;11.33;;;10.23;;
13279;SDS011;6708;49.814;8.652;2022-11-11T12:46:02;11.80;;;10.67;;
13279;SDS011;6708;49.814;8.652;2022-11-11T12:48:58;15.40;;;10.60;;
13279;SDS011;6708;49.814;8.652;2022-11-11T12:51:53;11.57;;;9.63;;
13279;SDS011;6708;49.814;8.652;2022-11-11T12:54:45;11.17;;;9.90;;
13279;SDS011;6708;49.814;8.652;2022-11-11T12:57:43;10.67;;;9.67;;
13279;SDS011;6708;49.814;8.652;2022-11-11T13:00:38;10.70;;;9.80;;
13279;SDS011;6708;49.814;8.652;2022-11-11T13:03:40;9.37;;;8.53;;
13279;SDS011;6708;49.814;8.652;2022-11-11T13:06:41;13.60;;;9.93;;
13279;SDS011;6708;49.814;8.652;2022-11-11T13:09:37;10.60;;;9.53;;
13279;SDS011;6708;49.814;8.652;2022-11-11T13:12:33;10.67;;;9.50;;
13279;SDS011;6708;49.814;8.652;2022-11-11T13:15:23;11.90;;;10.37;;
13279;SDS011;6708;49.814;8.652;2022-11-11T13:18:13;12.97;;;11.70;;
13279;SDS011;6708;49.814;8.652;2022-11-11T13:21:03;13.27;;;11.60;;
13279;SDS011;6708;49.814;8.652;2022-11-11T13:23:54;12.30;;;11.00;;
13279;SDS011;6708;49.814;8.652;2022-11-11T13:26:42;15.53;;;11.87;;
13279;SDS011;6708;49.814;8.652;2022-11-11T13:29:34;14.10;;;12.07;;
13279;SDS011;6708;49.814;8.652;2022-11-11T13:32:31;12.20;;;10.93;;
13279;SDS011;6708;49.814;8.652;2022-11-11T13:35:20;11.80;;;10.60;;
13279;SDS011;6708;49.814;8.652;2022-11-11T13:38:21;12.40;;;10.87;;
13279;SDS011;6708;49.814;8.652;2022-11-11T13:41:20;11.70;;;10.50;;
13279;SDS011;6708;49.814;8.652;2022-11-11T13:44:15;12.80;;;11.13;;
13279;SDS011;6708;49.814;8.652;2022-11-11T13:47:09;12.67;;;11.00;;
13279;SDS011;6708;49.814;8.652;2022-11-11T13:50:01;13.90;;;12.13;;
13279;SDS011;6708;49.814;8.652;2022-11-11T13:52:51;11.87;;;10.57;;
13279;SDS011;6708;49.814;8.652;2022-11-11T13:55:41;13.87;;;11.93;;
13279;SDS011;6708;49.814;8.652;2022-11-11T13:58:33;11.53;;;10.43;;
13279;SDS011;6708;49.814;8.652;2022-11-11T14:01:22;12.97;;;11.77;;
13279;SDS011;6708;49.814;8.652;2022-11-11T14:04:12;11.93;;;10.87;;
13279;SDS011;6708;49.814;8.652;2022-11-11T14:06:59;12.57;;;11.33;;
13279;SDS011;6708;49.814;8.652;2022-11-11T14:09:58;11.70;;;10.60;;
13279;SDS011;6708;49.814;8.652;2022-11-11T14:12:47;12.90;;;11.67;;
13279;SDS011;6708;49.814;8.652;2022-11-11T14:15:41;13.00;;;11.63;;
13279;SDS011;6708;49.814;8.652;2022-11-11T14:21:44;11.93;;;10.73;;
13279;SDS011;6708;49.814;8.652;2022-11-11T14:24:34;11.10;;;10.13;;
13279;SDS011;6708;49.814;8.652;2022-11-11T14:27:24;13.50;;;11.23;;
13279;SDS011;6708;49.814;8.652;2022-11-11T14:30:27;11.97;;;10.77;;
13279;SDS011;6708;49.814;8.652;2022-11-11T14:33:20;14.70;;;13.20;;
13279;SDS011;6708;49.814;8.652;2022-11-11T14:36:15;18.43;;;12.13;;
13279;SDS011;6708;49.814;8.652;2022-11-11T14:39:05;12.57;;;11.30;;
13279;SDS011;6708;49.814;8.652;2022-11-11T14:41:56;12.07;;;10.83;;
13279;SDS011;6708;49.814;8.652;2022-11-11T14:44:43;12.63;;;11.33;;
13279;SDS011;6708;49.814;8.652;2022-11-11T14:47:31;13.13;;;11.90;;
13279;SDS011;6708;49.814;8.652;2022-11-11T14:53:32;12.67;;;11.40;;
13279;SDS011;6708;49.814;8.652;2022-11-11T14:56:22;16.00;;;12.60;;
13279;SDS011;6708;49.814;8.652;2022-11-11T14:59:10;14.10;;;12.33;;
13279;SDS011;6708;49.814;8.652;2022-11-11T15:01:59;13.90;;;12.50;;
13279;SDS011;6708;49.814;8.652;2022-11-11T15:04:46;13.67;;;12.27;;
13279;SDS011;6708;49.814;8.652;2022-11-11T15:07:39;12.10;;;10.97;;
13279;SDS011;6708;49.814;8.652;2022-11-11T15:11:00;11.80;;;10.73;;
13279;SDS011;6708;49.814;8.652;2022-11-11T15:17:05;12.17;;;11.07;;
13279;SDS011;6708;49.814;8.652;2022-11-11T15:20:20;13.73;;;12.33;;
13279;SDS011;6708;49.814;8.652;2022-11-11T15:23:20;23.67;;;12.37;;
13279;SDS011;6708;49.814;8.652;2022-11-11T15:26:13;14.47;;;12.97;;
13279;SDS011;6708;49.814;8.652;2022-11-11T15:29:12;15.07;;;12.73;;
13279;SDS011;6708;49.814;8.652;2022-11-11T15:32:17;17.50;;;12.33;;
13279;SDS011;6708;49.814;8.652;2022-11-11T15:35:16;15.90;;;11.93;;
13279;SDS011;6708;49.814;8.652;2022-11-11T15:38:11;12.00;;;10.97;;
13279;SDS011;6708;49.814;8.652;2022-11-11T15:40:59;12.00;;;10.80;;
13279;SDS011;6708;49.814;8.652;2022-11-11T15:43:46;12.67;;;11.30;;
13279;SDS011;6708;49.814;8.652;2022-11-11T15:46:34;13.27;;;11.77;;
13279;SDS011;6708;49.814;8.652;2022-11-11T15:49:36;11.77;;;10.77;;
13279;SDS011;6708;49.814;8.652;2022-11-11T15:52:25;11.50;;;10.50;;
13279;SDS011;6708;49.814;8.652;2022-11-11T15:55:22;12.30;;;11.13;;
13279;SDS011;6708;49.814;8.652;2022-11-11T15:58:13;30.60;;;20.77;;
13279;SDS011;6708;49.814;8.652;2022-11-11T16:01:03;11.03;;;10.00;;
13279;SDS011;6708;49.814;8.652;2022-11-11T16:03:51;16.67;;;11.70;;
13279;SDS011;6708;49.814;8.652;2022-11-11T16:06:38;13.57;;;11.47;;
13279;SDS011;6708;49.814;8.652;2022-11-11T16:09:26;27.07;;;10.90;;
13279;SDS011;6708;49.814;8.652;2022-11-11T16:12:21;10.57;;;9.67;;
13279;SDS011;6708;49.814;8.652;2022-11-11T16:15:09;9.70;;;8.90;;
13279;SDS011;6708;49.814;8.652;2022-11-11T16:17:57;18.27;;;13.40;;
13279;SDS011;6708;49.814;8.652;2022-11-11T16:20:47;16.07;;;11.07;;
13279;SDS011;6708;49.814;8.652;2022-11-11T16:23:37;11.07;;;10.07;;
13279;SDS011;6708;49.814;8.652;2022-11-11T16:26:24;10.27;;;9.27;;
13279;SDS011;6708;49.814;8.652;2022-11-11T16:29:14;11.07;;;10.17;;
13279;SDS011;6708;49.814;8.652;2022-11-11T16:32:01;10.47;;;9.57;;
13279;SDS011;6708;49.814;8.652;2022-11-11T16:34:54;10.97;;;10.07;;
13279;SDS011;6708;49.814;8.652;2022-11-11T16:37:51;11.40;;;10.07;;
13279;SDS011;6708;49.814;8.652;2022-11-11T16:40:41;19.47;;;10.83;;
13279;SDS011;6708;49.814;8.652;2022-11-11T16:43:29;16.23;;;10.07;;
13279;SDS011;6708;49.814;8.652;2022-11-11T16:46:37;20.97;;;10.07;;
13279;SDS011;6708;49.814;8.652;2022-11-11T16:49:25;12.90;;;11.60;;
13279;SDS011;6708;49.814;8.652;2022-11-11T16:52:15;11.67;;;10.43;;
13279;SDS011;6708;49.814;8.652;2022-11-11T16:55:04;11.30;;;10.30;;
13279;SDS011;6708;49.814;8.652;2022-11-11T16:57:52;11.70;;;10.53;;
13279;SDS011;6708;49.814;8.652;2022-11-11T17:00:39;11.33;;;10.33;;
13279;SDS011;6708;49.814;8.652;2022-11-11T17:03:29;10.57;;;9.57;;
13279;SDS011;6708;49.814;8.652;2022-11-11T17:06:17;10.37;;;9.27;;
13279;SDS011;6708;49.814;8.652;2022-11-11T17:09:07;10.07;;;9.20;;
13279;SDS011;6708;49.814;8.652;2022-11-11T17:12:15;11.80;;;10.13;;
13279;SDS011;6708;49.814;8.652;2022-11-11T17:15:15;12.67;;;10.93;;
13279;SDS011;6708;49.814;8.652;2022-11-11T17:18:04;23.97;;;10.90;;
13279;SDS011;6708;49.814;8.652;2022-11-11T17:20:54;14.77;;;10.83;;
13279;SDS011;6708;49.814;8.652;2022-11-11T17:23:41;13.80;;;12.03;;
13279;SDS011;6708;49.814;8.652;2022-11-11T17:26:28;11.83;;;10.90;;
13279;SDS011;6708;49.814;8.652;2022-11-11T17:29:15;14.40;;;12.73;;